Time;durP1;ratioP1;P1;durP2;ratioP2;P2;SDS_P1;SDS_P2;PMS_P1;PMS_P2;Temp;Humidity;BMP_temperature;BMP_pressure;BME280_temperature;BME280_humidity;BME280_pressure;Samples;Min_cycle;Max_cycle;Signal;HPM_P1;HPM_P2
2022/01/08 00:01:36;;;;;;;70.93;41.63;;;;;;;;;;6280217;22;20333;-76
2022/01/08 00:04:04;;;;;;;68.20;40.72;;;;;;;;;;6250308;22;20345;-76
2022/01/08 00:06:30;;;;;;;71.25;40.70;;;;;;;;;;6279003;22;19999;-75
2022/01/08 00:08:56;;;;;;;64.13;39.33;;;;;;;;;;6250994;22;20054;-76
2022/01/08 00:11:25;;;;;;;68.10;41.00;;;;;;;;;;6283929;22;20111;-77
2022/01/08 00:13:51;;;;;;;62.63;39.70;;;;;;;;;;6253711;22;20007;-76
2022/01/08 00:16:17;;;;;;;66.22;39.95;;;;;;;;;;6278113;22;20000;-76
2022/01/08 00:18:44;;;;;;;66.55;40.25;;;;;;;;;;6283873;22;20107;-77
2022/01/08 00:21:10;;;;;;;72.00;43.42;;;;;;;;;;6251396;22;20014;-76
2022/01/08 00:23:36;;;;;;;67.57;43.08;;;;;;;;;;6277673;22;20500;-77
2022/01/08 00:26:04;;;;;;;71.93;42.72;;;;;;;;;;6277522;22;20023;-76
2022/01/08 00:28:30;;;;;;;70.25;43.08;;;;;;;;;;6280071;22;20000;-76
2022/01/08 00:30:56;;;;;;;67.82;42.55;;;;;;;;;;6277702;22;20007;-75
2022/01/08 00:33:22;;;;;;;64.78;39.95;;;;;;;;;;6277621;22;20032;-76
2022/01/08 00:35:48;;;;;;;66.35;40.53;;;;;;;;;;6250783;22;20008;-75
2022/01/08 00:38:15;;;;;;;73.70;42.72;;;;;;;;;;6279083;22;20004;-72
2022/01/08 00:40:41;;;;;;;68.85;42.60;;;;;;;;;;6280915;22;20004;-77
2022/01/08 00:43:07;;;;;;;62.70;40.85;;;;;;;;;;6283399;22;20059;-77
2022/01/08 00:45:33;;;;;;;66.68;40.15;;;;;;;;;;6290326;22;19996;-75
2022/01/08 00:47:59;;;;;;;62.95;39.33;;;;;;;;;;6283047;22;20329;-76
2022/01/08 00:50:28;;;;;;;60.63;38.25;;;;;;;;;;6285570;22;19995;-73
2022/01/08 00:52:54;;;;;;;64.40;37.85;;;;;;;;;;6264442;22;20115;-77
2022/01/08 00:55:24;;;;;;;63.28;38.55;;;;;;;;;;6284600;22;20000;-78
2022/01/08 00:57:50;;;;;;;67.47;40.40;;;;;;;;;;6282692;22;20007;-72
2022/01/08 01:00:16;;;;;;;62.58;38.63;;;;;;;;;;6282253;22;20083;-72
2022/01/08 01:02:42;;;;;;;64.65;40.45;;;;;;;;;;6286184;22;20000;-74
2022/01/08 01:05:13;;;;;;;62.60;39.38;;;;;;;;;;6285035;22;20008;-76
2022/01/08 01:07:40;;;;;;;63.75;39.97;;;;;;;;;;6281691;22;19996;-76
2022/01/08 01:10:07;;;;;;;69.35;41.45;;;;;;;;;;6282136;22;20004;-74
2022/01/08 01:12:33;;;;;;;68.78;41.83;;;;;;;;;;6278374;22;20000;-76
2022/01/08 01:15:00;;;;;;;66.40;40.70;;;;;;;;;;6254249;22;20042;-73
2022/01/08 01:17:27;;;;;;;61.65;38.35;;;;;;;;;;6286469;22;20003;-76
2022/01/08 01:19:55;;;;;;;66.72;39.80;;;;;;;;;;6252634;22;20043;-75
2022/01/08 01:22:26;;;;;;;65.93;40.72;;;;;;;;;;6279045;22;20125;-75
2022/01/08 01:25:00;;;;;;;64.20;40.42;;;;;;;;;;6279668;22;20039;-75
2022/01/08 01:30:19;;;;;;;67.65;42.25;;;;;;;;;;6279007;22;20062;-75
2022/01/08 01:49:21;;;;;;;68.30;42.33;;;;;;;;;;6189149;23;20020;-76
2022/01/08 01:51:47;;;;;;;68.13;40.95;;;;;;;;;;6193495;23;20032;-77
2022/01/08 01:54:13;;;;;;;63.50;42.15;;;;;;;;;;6196784;23;20028;-76
2022/01/08 01:56:39;;;;;;;66.15;41.97;;;;;;;;;;6190002;23;20004;-77
2022/01/08 01:59:07;;;;;;;63.13;40.40;;;;;;;;;;6167357;23;20549;-78
2022/01/08 02:01:35;;;;;;;64.05;42.97;;;;;;;;;;6192743;23;20086;-76
2022/01/08 02:04:01;;;;;;;65.53;41.67;;;;;;;;;;6173167;23;20101;-76
2022/01/08 02:06:28;;;;;;;71.40;43.10;;;;;;;;;;6173206;23;20012;-77
2022/01/08 02:08:54;;;;;;;66.97;41.42;;;;;;;;;;6174166;23;20364;-76
2022/01/08 02:11:21;;;;;;;68.65;42.10;;;;;;;;;;6168816;23;20032;-77
2022/01/08 02:13:47;;;;;;;67.32;41.80;;;;;;;;;;6181439;23;20534;-80
2022/01/08 02:16:17;;;;;;;68.20;42.03;;;;;;;;;;6190801;23;20005;-76
2022/01/08 02:18:46;;;;;;;66.05;39.78;;;;;;;;;;6191517;23;20009;-75
2022/01/08 02:21:13;;;;;;;68.88;41.42;;;;;;;;;;6263934;22;19991;-76
2022/01/08 02:23:40;;;;;;;66.78;42.20;;;;;;;;;;6292442;22;20004;-77
2022/01/08 02:26:07;;;;;;;65.22;38.88;;;;;;;;;;6285921;22;20307;-79
2022/01/08 02:28:34;;;;;;;70.75;43.28;;;;;;;;;;6257858;22;20004;-79
2022/01/08 02:31:02;;;;;;;66.72;40.63;;;;;;;;;;6288953;22;20007;-77
2022/01/08 02:33:28;;;;;;;67.85;42.20;;;;;;;;;;6284683;22;20000;-77
2022/01/08 02:35:54;;;;;;;77.53;46.70;;;;;;;;;;6254813;22;20004;-77
2022/01/08 02:38:25;;;;;;;72.85;43.53;;;;;;;;;;6288078;22;20490;-76
2022/01/08 02:40:58;;;;;;;66.90;41.67;;;;;;;;;;6257510;22;20062;-77
2022/01/08 02:43:43;;;;;;;72.55;42.47;;;;;;;;;;6284272;22;20030;-78
2022/01/08 02:46:09;;;;;;;72.90;43.80;;;;;;;;;;6286719;22;20072;-77
2022/01/08 02:48:39;;;;;;;75.28;48.53;;;;;;;;;;6292307;22;20217;-77
2022/01/08 02:51:08;;;;;;;72.07;44.08;;;;;;;;;;6268754;22;20022;-78
2022/01/08 02:53:36;;;;;;;65.55;40.72;;;;;;;;;;6263317;22;20011;-81
2022/01/08 02:56:02;;;;;;;65.70;40.72;;;;;;;;;;6287331;22;20430;-77
2022/01/08 02:58:29;;;;;;;60.40;37.83;;;;;;;;;;6256220;22;20011;-77
2022/01/08 03:00:55;;;;;;;61.90;39.25;;;;;;;;;;6279305;22;20004;-79
2022/01/08 03:03:22;;;;;;;58.80;39.05;;;;;;;;;;6283091;22;20007;-77
2022/01/08 03:05:48;;;;;;;57.95;38.38;;;;;;;;;;6280989;22;20000;-80
2022/01/08 03:08:14;;;;;;;57.88;38.15;;;;;;;;;;6282345;22;20050;-76
2022/01/08 03:10:40;;;;;;;58.78;36.53;;;;;;;;;;6255281;22;20007;-78
2022/01/08 03:13:07;;;;;;;58.45;35.45;;;;;;;;;;6291126;22;20004;-78
2022/01/08 03:15:39;;;;;;;55.45;36.75;;;;;;;;;;6288374;22;20000;-77
2022/01/08 03:18:09;;;;;;;56.80;36.67;;;;;;;;;;6268826;22;20010;-77
2022/01/08 03:20:43;;;;;;;61.60;37.83;;;;;;;;;;6258097;22;20004;-77
2022/01/08 03:23:15;;;;;;;59.70;36.35;;;;;;;;;;6255214;22;20038;-76
2022/01/08 03:25:41;;;;;;;56.35;36.90;;;;;;;;;;6257040;22;20004;-77
2022/01/08 03:28:07;;;;;;;56.47;35.65;;;;;;;;;;6284026;22;20003;-79
2022/01/08 03:30:34;;;;;;;53.00;32.90;;;;;;;;;;6287666;22;19996;-80
2022/01/08 03:33:01;;;;;;;53.88;32.95;;;;;;;;;;6282802;22;19999;-77
2022/01/08 03:35:27;;;;;;;54.50;35.20;;;;;;;;;;6284020;22;20079;-77
2022/01/08 03:37:55;;;;;;;50.47;34.13;;;;;;;;;;6260470;22;20004;-77
2022/01/08 03:40:26;;;;;;;48.50;30.60;;;;;;;;;;6283460;22;20127;-76
2022/01/08 03:42:53;;;;;;;50.35;33.42;;;;;;;;;;6259757;22;20016;-81
2022/01/08 03:45:19;;;;;;;54.33;33.25;;;;;;;;;;6287024;22;20000;-77
2022/01/08 03:50:14;;;;;;;55.15;33.75;;;;;;;;;;6294945;22;20077;-77
2022/01/08 03:52:40;;;;;;;53.00;34.78;;;;;;;;;;6255388;22;20003;-76
2022/01/08 03:55:06;;;;;;;56.22;35.90;;;;;;;;;;6288683;22;20079;-77
2022/01/08 03:57:32;;;;;;;52.67;34.35;;;;;;;;;;6283524;22;20019;-75
2022/01/08 03:59:59;;;;;;;55.15;34.65;;;;;;;;;;6282989;22;20038;-76
2022/01/08 04:02:25;;;;;;;54.30;35.22;;;;;;;;;;6289276;22;20003;-76
2022/01/08 04:04:51;;;;;;;52.03;33.45;;;;;;;;;;6283357;22;20011;-75
2022/01/08 04:07:17;;;;;;;53.00;31.02;;;;;;;;;;6285207;22;20067;-77
2022/01/08 04:09:45;;;;;;;51.60;32.08;;;;;;;;;;6281080;22;20012;-76
2022/01/08 04:12:16;;;;;;;50.75;32.65;;;;;;;;;;6281129;22;20000;-76
2022/01/08 04:14:53;;;;;;;52.10;33.60;;;;;;;;;;6257496;22;20095;-76
2022/01/08 04:17:19;;;;;;;49.88;32.25;;;;;;;;;;6281906;22;20000;-75
2022/01/08 04:19:45;;;;;;;48.08;30.55;;;;;;;;;;6280241;22;20000;-76
2022/01/08 04:22:13;;;;;;;50.97;32.40;;;;;;;;;;6255001;22;19996;-77
2022/01/08 04:24:40;;;;;;;46.72;29.52;;;;;;;;;;6254509;22;20008;-76
2022/01/08 04:27:07;;;;;;;41.72;28.20;;;;;;;;;;6281761;22;20000;-76
2022/01/08 04:29:33;;;;;;;45.10;30.73;;;;;;;;;;6250651;22;20061;-75
2022/01/08 04:31:59;;;;;;;44.50;28.75;;;;;;;;;;6258647;22;20058;-77
2022/01/08 04:34:26;;;;;;;48.60;30.40;;;;;;;;;;6257305;22;20004;-78
2022/01/08 04:36:52;;;;;;;47.83;31.45;;;;;;;;;;6283836;22;20012;-76
2022/01/08 04:39:18;;;;;;;43.50;30.63;;;;;;;;;;6284147;22;20007;-78
2022/01/08 04:41:45;;;;;;;46.65;30.33;;;;;;;;;;6285903;22;20007;-77
2022/01/08 04:44:12;;;;;;;47.33;30.95;;;;;;;;;;6289421;22;20011;-76
2022/01/08 04:46:47;;;;;;;42.17;26.95;;;;;;;;;;6270999;22;20023;-78
2022/01/08 04:49:19;;;;;;;48.25;29.52;;;;;;;;;;6293824;22;20034;-77
2022/01/08 04:51:55;;;;;;;42.35;28.25;;;;;;;;;;6295222;22;20000;-77
2022/01/08 04:54:23;;;;;;;44.03;27.73;;;;;;;;;;6298438;22;20026;-76
2022/01/08 04:56:50;;;;;;;40.30;27.88;;;;;;;;;;6295151;22;20004;-75
2022/01/08 04:59:16;;;;;;;40.10;27.10;;;;;;;;;;6285071;22;20007;-78
2022/01/08 05:01:43;;;;;;;42.13;27.10;;;;;;;;;;6284157;22;20007;-76
2022/01/08 05:04:09;;;;;;;42.92;26.60;;;;;;;;;;6283900;22;20012;-76
2022/01/08 05:06:35;;;;;;;40.95;27.00;;;;;;;;;;6287710;22;20072;-76
2022/01/08 05:09:11;;;;;;;41.92;26.00;;;;;;;;;;6286674;22;19988;-76
2022/01/08 05:11:40;;;;;;;39.75;25.92;;;;;;;;;;6267172;22;20000;-77
2022/01/08 05:14:08;;;;;;;38.42;25.10;;;;;;;;;;6261524;22;20004;-76
2022/01/08 05:16:39;;;;;;;38.67;26.90;;;;;;;;;;6285620;22;20003;-76
2022/01/08 05:19:05;;;;;;;42.13;27.20;;;;;;;;;;6291094;22;19992;-77
2022/01/08 05:21:33;;;;;;;39.65;27.65;;;;;;;;;;6289697;22;19994;-76
2022/01/08 05:24:00;;;;;;;36.67;23.77;;;;;;;;;;6261066;22;20019;-76
2022/01/08 05:26:43;;;;;;;32.30;22.42;;;;;;;;;;6256597;22;20003;-77
2022/01/08 05:29:10;;;;;;;38.95;24.52;;;;;;;;;;6261098;22;19996;-78
2022/01/08 05:31:36;;;;;;;34.78;23.50;;;;;;;;;;6290088;22;20004;-78
2022/01/08 05:34:02;;;;;;;31.05;21.80;;;;;;;;;;6261112;22;20086;-76
2022/01/08 05:36:28;;;;;;;35.88;24.48;;;;;;;;;;6254629;22;20003;-77
2022/01/08 05:38:58;;;;;;;33.72;21.73;;;;;;;;;;6258911;22;20000;-76
2022/01/08 05:41:24;;;;;;;31.27;21.90;;;;;;;;;;6287215;22;19996;-77
2022/01/08 05:43:50;;;;;;;33.15;22.75;;;;;;;;;;6259182;22;20314;-76
2022/01/08 05:46:18;;;;;;;32.15;21.77;;;;;;;;;;6289695;22;20466;-75
2022/01/08 05:48:44;;;;;;;34.42;21.45;;;;;;;;;;6285801;22;20109;-76
2022/01/08 05:51:11;;;;;;;31.05;22.08;;;;;;;;;;6256027;22;20034;-76
2022/01/08 05:53:37;;;;;;;31.33;22.70;;;;;;;;;;6257242;22;20445;-76
2022/01/08 05:56:03;;;;;;;34.17;23.02;;;;;;;;;;6254204;22;20084;-76
2022/01/08 05:58:29;;;;;;;39.28;24.30;;;;;;;;;;6280058;22;20091;-76
2022/01/08 06:00:55;;;;;;;39.75;26.42;;;;;;;;;;6280111;22;20035;-77
2022/01/08 06:03:21;;;;;;;38.53;25.83;;;;;;;;;;6280343;22;20003;-76
2022/01/08 06:05:49;;;;;;;40.00;26.00;;;;;;;;;;6257026;22;20007;-77
2022/01/08 06:08:15;;;;;;;35.05;25.05;;;;;;;;;;6289668;22;20003;-77
2022/01/08 06:10:41;;;;;;;48.03;30.95;;;;;;;;;;6287769;22;20003;-76
2022/01/08 06:13:07;;;;;;;47.55;29.17;;;;;;;;;;6280115;22;20011;-77
2022/01/08 06:15:33;;;;;;;56.08;37.80;;;;;;;;;;6280032;22;20075;-76
2022/01/08 06:17:59;;;;;;;59.53;38.72;;;;;;;;;;6279883;22;20438;-75
2022/01/08 06:20:25;;;;;;;57.45;37.90;;;;;;;;;;6279908;22;19996;-77
2022/01/08 06:22:51;;;;;;;55.40;38.70;;;;;;;;;;6282322;22;20004;-77
2022/01/08 06:25:17;;;;;;;56.67;37.50;;;;;;;;;;6258087;22;20066;-78
2022/01/08 06:27:45;;;;;;;70.40;39.17;;;;;;;;;;6285403;22;20039;-76
2022/01/08 06:30:13;;;;;;;54.15;37.33;;;;;;;;;;6261641;22;20000;-75
2022/01/08 06:32:39;;;;;;;58.80;37.85;;;;;;;;;;6280637;22;20007;-76
2022/01/08 06:35:05;;;;;;;56.13;38.25;;;;;;;;;;6252334;22;19999;-76
2022/01/08 06:37:31;;;;;;;61.75;39.03;;;;;;;;;;6281026;22;19996;-77
2022/01/08 06:40:23;;;;;;;56.00;37.10;;;;;;;;;;6293796;22;20000;-78
2022/01/08 06:42:50;;;;;;;59.13;37.88;;;;;;;;;;6271154;22;20075;-79
2022/01/08 06:45:17;;;;;;;63.65;38.35;;;;;;;;;;6260187;22;20043;-77
2022/01/08 06:47:45;;;;;;;56.03;37.30;;;;;;;;;;6283661;22;20434;-77
2022/01/08 06:50:13;;;;;;;55.45;36.83;;;;;;;;;;6283882;22;20485;-76
2022/01/08 06:52:39;;;;;;;57.13;38.15;;;;;;;;;;6285085;22;20020;-78
2022/01/08 06:55:06;;;;;;;61.20;40.17;;;;;;;;;;6280799;22;20003;-76
2022/01/08 06:57:32;;;;;;;70.20;46.70;;;;;;;;;;6280036;22;20011;-77
2022/01/08 07:00:00;;;;;;;62.63;40.92;;;;;;;;;;6280438;22;20087;-76
2022/01/08 07:02:26;;;;;;;58.13;39.00;;;;;;;;;;6281945;22;20414;-77
2022/01/08 07:04:52;;;;;;;55.47;37.60;;;;;;;;;;6255610;22;20019;-76
2022/01/08 07:07:18;;;;;;;58.30;38.95;;;;;;;;;;6280687;22;20000;-76
2022/01/08 07:09:45;;;;;;;62.15;41.22;;;;;;;;;;6279813;22;20408;-75
2022/01/08 07:12:11;;;;;;;61.35;41.47;;;;;;;;;;6279383;22;20075;-75
2022/01/08 07:14:37;;;;;;;60.35;37.67;;;;;;;;;;6282007;22;19999;-76
2022/01/08 07:17:06;;;;;;;60.03;40.10;;;;;;;;;;6283290;22;20508;-76
2022/01/08 07:19:32;;;;;;;73.80;44.42;;;;;;;;;;6278942;22;19999;-77
2022/01/08 07:22:00;;;;;;;83.93;54.63;;;;;;;;;;6251332;22;20000;-77
2022/01/08 07:24:26;;;;;;;61.55;42.45;;;;;;;;;;6280161;22;20058;-77
2022/01/08 07:26:52;;;;;;;71.18;45.95;;;;;;;;;;6257372;22;20000;-76
2022/01/08 07:29:18;;;;;;;80.93;49.58;;;;;;;;;;6290425;22;19992;-75
2022/01/08 07:31:54;;;;;;;61.03;39.80;;;;;;;;;;6266487;22;20015;-75
2022/01/08 07:34:20;;;;;;;61.38;39.72;;;;;;;;;;6285140;22;20006;-75
2022/01/08 07:36:50;;;;;;;58.55;39.67;;;;;;;;;;6253583;22;20372;-76
2022/01/08 07:39:16;;;;;;;58.22;37.90;;;;;;;;;;6286885;22;20018;-75
2022/01/08 07:41:43;;;;;;;59.08;39.65;;;;;;;;;;6294020;22;20007;-75
2022/01/08 07:44:09;;;;;;;61.20;40.72;;;;;;;;;;6291059;22;20007;-76
2022/01/08 07:46:35;;;;;;;67.78;42.78;;;;;;;;;;6287585;22;20060;-73
2022/01/08 07:49:03;;;;;;;65.13;41.42;;;;;;;;;;6270309;22;20010;-73
2022/01/08 07:51:31;;;;;;;59.38;40.40;;;;;;;;;;6259257;22;20004;-75
2022/01/08 07:53:57;;;;;;;67.28;42.58;;;;;;;;;;6278417;22;19999;-75
2022/01/08 07:56:23;;;;;;;66.68;42.75;;;;;;;;;;6276918;22;20065;-75
2022/01/08 07:58:49;;;;;;;62.38;41.42;;;;;;;;;;6276637;22;20008;-75
2022/01/08 08:01:15;;;;;;;57.58;37.95;;;;;;;;;;6278530;22;20087;-76
2022/01/08 08:03:44;;;;;;;57.05;36.53;;;;;;;;;;6281923;22;20468;-77
2022/01/08 08:06:13;;;;;;;51.22;33.80;;;;;;;;;;6280948;22;20065;-75
2022/01/08 08:08:39;;;;;;;40.42;28.35;;;;;;;;;;6281252;22;20011;-76
2022/01/08 08:11:05;;;;;;;28.85;20.58;;;;;;;;;;6281455;22;19999;-76
2022/01/08 08:13:31;;;;;;;31.60;19.95;;;;;;;;;;6277764;22;20003;-75
2022/01/08 08:15:57;;;;;;;24.65;18.10;;;;;;;;;;6277464;22;19999;-76
2022/01/08 08:18:26;;;;;;;23.33;17.17;;;;;;;;;;6280174;22;20004;-76
2022/01/08 08:20:53;;;;;;;24.67;18.70;;;;;;;;;;6277687;22;20010;-76
2022/01/08 08:23:21;;;;;;;25.50;17.05;;;;;;;;;;6251425;22;20399;-75
2022/01/08 08:25:47;;;;;;;26.10;16.65;;;;;;;;;;6252068;22;20035;-75
2022/01/08 08:28:15;;;;;;;21.23;15.35;;;;;;;;;;6282372;22;19999;-75
2022/01/08 08:30:43;;;;;;;21.45;16.27;;;;;;;;;;6285626;22;20010;-77
2022/01/08 08:33:10;;;;;;;21.17;15.40;;;;;;;;;;6280690;22;20337;-73
2022/01/08 08:35:36;;;;;;;22.85;15.85;;;;;;;;;;6284329;22;20007;-77
2022/01/08 08:38:02;;;;;;;27.05;18.88;;;;;;;;;;6276394;22;19996;-71
2022/01/08 08:40:28;;;;;;;25.88;17.67;;;;;;;;;;6282775;22;20010;-74
2022/01/08 08:42:58;;;;;;;31.42;21.42;;;;;;;;;;6259963;22;20000;-75
2022/01/08 08:45:25;;;;;;;27.83;19.02;;;;;;;;;;6268416;22;20067;-77
2022/01/08 08:47:51;;;;;;;26.08;18.15;;;;;;;;;;6252786;22;20007;-76
2022/01/08 08:50:18;;;;;;;29.10;20.02;;;;;;;;;;6280018;22;20454;-72
2022/01/08 08:52:45;;;;;;;24.85;18.20;;;;;;;;;;6253360;22;20010;-75
2022/01/08 08:55:39;;;;;;;27.02;19.27;;;;;;;;;;6261335;22;19994;-78
2022/01/08 08:58:05;;;;;;;27.60;18.98;;;;;;;;;;6256879;22;20087;-75
2022/01/08 09:00:36;;;;;;;29.55;19.45;;;;;;;;;;6282043;22;20462;-76
2022/01/08 09:03:02;;;;;;;28.88;20.02;;;;;;;;;;6285007;22;19995;-76
2022/01/08 09:05:28;;;;;;;29.65;19.95;;;;;;;;;;6254747;22;20008;-72
2022/01/08 09:07:56;;;;;;;29.45;20.52;;;;;;;;;;6277914;22;20222;-73
2022/01/08 09:10:41;;;;;;;28.38;20.02;;;;;;;;;;6293003;22;20007;-77
2022/01/08 09:13:07;;;;;;;28.10;20.17;;;;;;;;;;6265647;22;19988;-75
2022/01/08 09:15:37;;;;;;;28.60;20.35;;;;;;;;;;6281061;22;20016;-74
2022/01/08 09:18:03;;;;;;;27.77;19.55;;;;;;;;;;6252262;22;20011;-72
2022/01/08 09:20:29;;;;;;;28.50;19.33;;;;;;;;;;6278493;22;20380;-74
2022/01/08 09:22:56;;;;;;;27.02;18.80;;;;;;;;;;6281992;22;20077;-73
2022/01/08 09:25:22;;;;;;;25.58;16.88;;;;;;;;;;6280816;22;20003;-72
2022/01/08 09:27:48;;;;;;;23.85;16.63;;;;;;;;;;6278436;22;20041;-72
2022/01/08 09:30:14;;;;;;;59.40;37.45;;;;;;;;;;6280551;22;20019;-75
2022/01/08 09:32:44;;;;;;;78.97;54.17;;;;;;;;;;6253030;22;20425;-70
2022/01/08 09:35:10;;;;;;;151.60;92.95;;;;;;;;;;6251505;22;20094;-73
2022/01/08 09:37:38;;;;;;;212.05;129.75;;;;;;;;;;6280052;22;19996;-75
2022/01/08 09:40:06;;;;;;;69.10;45.97;;;;;;;;;;6280565;22;20015;-73
2022/01/08 09:42:32;;;;;;;64.93;45.17;;;;;;;;;;6278514;22;20034;-73
2022/01/08 09:44:58;;;;;;;69.43;48.13;;;;;;;;;;6280285;22;20014;-73
2022/01/08 09:47:24;;;;;;;81.20;48.65;;;;;;;;;;6279086;22;20000;-76
2022/01/08 09:49:50;;;;;;;73.15;46.53;;;;;;;;;;6278849;22;20003;-74
2022/01/08 09:52:17;;;;;;;74.95;48.97;;;;;;;;;;6281883;22;20071;-78
2022/01/08 09:54:44;;;;;;;78.88;52.90;;;;;;;;;;6281631;22;20457;-77
2022/01/08 09:57:10;;;;;;;91.07;58.42;;;;;;;;;;6285499;22;20000;-74
2022/01/08 09:59:38;;;;;;;93.05;60.17;;;;;;;;;;6253155;22;20019;-73
2022/01/08 10:02:04;;;;;;;94.38;62.13;;;;;;;;;;6251412;22;20417;-75
2022/01/08 10:04:41;;;;;;;106.45;65.53;;;;;;;;;;6286197;22;19991;-75
2022/01/08 10:07:18;;;;;;;129.35;76.80;;;;;;;;;;6276423;22;20358;-72
2022/01/08 10:09:59;;;;;;;130.40;75.55;;;;;;;;;;6277178;22;20439;-72
2022/01/08 10:12:35;;;;;;;118.72;73.45;;;;;;;;;;6276069;22;20007;-73
2022/01/08 10:17:46;;;;;;;140.13;81.20;;;;;;;;;;6282003;22;20046;-75
2022/01/08 10:20:12;;;;;;;142.80;84.40;;;;;;;;;;6282054;22;20000;-73
2022/01/08 10:22:38;;;;;;;156.15;96.40;;;;;;;;;;6276783;22;20031;-74
2022/01/08 10:25:12;;;;;;;155.13;91.43;;;;;;;;;;6276458;22;20039;-74
2022/01/08 10:27:38;;;;;;;144.65;84.45;;;;;;;;;;6281970;22;19996;-75
2022/01/08 10:30:08;;;;;;;135.88;82.85;;;;;;;;;;6282492;22;20026;-75
2022/01/08 10:32:36;;;;;;;132.57;78.72;;;;;;;;;;6280107;22;20004;-75
2022/01/08 10:35:02;;;;;;;135.02;79.90;;;;;;;;;;6277643;22;20030;-76
2022/01/08 10:37:28;;;;;;;141.23;82.30;;;;;;;;;;6277978;22;19999;-76
2022/01/08 10:39:55;;;;;;;127.53;78.25;;;;;;;;;;6278067;22;20003;-77
2022/01/08 10:42:21;;;;;;;123.82;74.88;;;;;;;;;;6251726;22;20012;-75
2022/01/08 10:44:50;;;;;;;128.60;76.55;;;;;;;;;;6278746;22;20435;-74
2022/01/08 10:47:19;;;;;;;128.02;76.70;;;;;;;;;;6278531;22;20333;-73
2022/01/08 10:49:45;;;;;;;148.60;88.03;;;;;;;;;;6278565;22;20003;-71
2022/01/08 10:52:15;;;;;;;123.82;76.88;;;;;;;;;;6277707;22;20313;-73
2022/01/08 10:54:43;;;;;;;125.72;76.40;;;;;;;;;;6277987;22;20051;-75
2022/01/08 10:57:12;;;;;;;120.05;71.03;;;;;;;;;;6290860;22;20134;-77
2022/01/08 10:59:39;;;;;;;119.03;71.78;;;;;;;;;;6255636;22;20098;-77
2022/01/08 11:02:05;;;;;;;114.55;71.65;;;;;;;;;;6255425;22;20065;-73
2022/01/08 11:04:42;;;;;;;109.90;68.75;;;;;;;;;;6250083;22;20015;-75
2022/01/08 11:07:21;;;;;;;118.10;72.50;;;;;;;;;;6282981;22;19998;-77
2022/01/08 11:09:48;;;;;;;111.43;68.22;;;;;;;;;;6258484;22;20008;-77
2022/01/08 11:12:24;;;;;;;103.57;65.93;;;;;;;;;;6286518;22;19996;-77
2022/01/08 11:18:05;;;;;;;111.45;63.90;;;;;;;;;;6173940;23;20017;-72
2022/01/08 11:20:34;;;;;;;110.78;69.78;;;;;;;;;;6157580;23;20059;-75
2022/01/08 11:23:05;;;;;;;103.32;64.18;;;;;;;;;;6168592;23;20006;-77
2022/01/08 11:25:35;;;;;;;103.63;63.60;;;;;;;;;;6148584;23;20005;-78
2022/01/08 11:28:15;;;;;;;111.40;68.50;;;;;;;;;;6170856;23;20008;-77
2022/01/08 11:30:48;;;;;;;113.63;68.38;;;;;;;;;;6167263;23;20013;-73
2022/01/08 11:33:43;;;;;;;113.43;68.18;;;;;;;;;;6170941;23;20005;-78
2022/01/08 11:36:30;;;;;;;110.05;67.18;;;;;;;;;;6152039;23;19989;-78
2022/01/08 11:38:57;;;;;;;107.38;65.57;;;;;;;;;;6141159;23;20006;-74
2022/01/08 11:41:31;;;;;;;114.25;69.60;;;;;;;;;;6170216;23;20110;-79
2022/01/08 11:44:03;;;;;;;118.30;74.10;;;;;;;;;;6102430;23;20013;-76
2022/01/08 11:46:34;;;;;;;150.35;89.20;;;;;;;;;;6171626;23;20025;-75
2022/01/08 11:49:01;;;;;;;442.67;301.77;;;;;;;;;;6204099;22;20027;-76
2022/01/08 11:51:29;;;;;;;140.82;82.05;;;;;;;;;;6249202;22;20073;-74
2022/01/08 11:54:02;;;;;;;132.68;82.13;;;;;;;;;;6279064;22;20000;-76
2022/01/08 11:56:34;;;;;;;144.32;83.40;;;;;;;;;;6291903;22;20058;-74
2022/01/08 11:59:15;;;;;;;152.90;88.20;;;;;;;;;;6287514;22;20019;-75
2022/01/08 12:02:01;;;;;;;133.55;81.00;;;;;;;;;;6287825;22;20079;-74
2022/01/08 12:04:28;;;;;;;132.10;79.13;;;;;;;;;;6260861;22;20396;-74
2022/01/08 12:06:55;;;;;;;137.05;82.38;;;;;;;;;;6295824;22;19980;-75
2022/01/08 12:09:25;;;;;;;141.18;82.00;;;;;;;;;;6287997;22;20071;-74
2022/01/08 12:11:55;;;;;;;125.50;74.53;;;;;;;;;;6291624;22;20003;-73
2022/01/08 12:14:26;;;;;;;144.75;88.72;;;;;;;;;;6266130;22;20008;-76
2022/01/08 12:16:54;;;;;;;145.93;80.85;;;;;;;;;;6293777;22;20002;-76
2022/01/08 12:19:27;;;;;;;122.22;74.10;;;;;;;;;;6290435;22;20018;-74
2022/01/08 12:21:56;;;;;;;126.40;72.00;;;;;;;;;;6293751;22;20000;-73
2022/01/08 12:24:28;;;;;;;123.45;71.82;;;;;;;;;;6294819;22;20015;-74
2022/01/08 12:26:54;;;;;;;126.28;75.65;;;;;;;;;;6291841;22;20000;-74
2022/01/08 12:29:40;;;;;;;120.47;71.63;;;;;;;;;;6293154;22;20004;-73
2022/01/08 12:32:46;;;;;;;139.45;80.22;;;;;;;;;;6292314;22;20004;-77
2022/01/08 12:35:37;;;;;;;128.48;76.10;;;;;;;;;;6290419;22;20007;-73
2022/01/08 12:38:07;;;;;;;133.50;80.03;;;;;;;;;;6264633;22;20031;-74
2022/01/08 12:40:39;;;;;;;136.18;80.18;;;;;;;;;;6288518;22;20000;-71
2022/01/08 12:43:34;;;;;;;143.40;84.65;;;;;;;;;;6212483;23;20129;-75
2022/01/08 12:46:12;;;;;;;207.00;111.82;;;;;;;;;;6213190;23;20020;-75
2022/01/08 12:48:38;;;;;;;195.38;107.57;;;;;;;;;;6224455;23;20013;-73
2022/01/08 12:51:05;;;;;;;169.77;96.70;;;;;;;;;;6197735;23;20371;-73
2022/01/08 12:53:32;;;;;;;170.63;97.80;;;;;;;;;;6200956;23;20036;-73
2022/01/08 12:55:58;;;;;;;168.75;100.20;;;;;;;;;;6226924;23;20013;-73
2022/01/08 12:58:31;;;;;;;159.05;90.72;;;;;;;;;;6225162;23;20015;-76
2022/01/08 13:01:03;;;;;;;151.10;84.18;;;;;;;;;;6221401;23;20008;-76
2022/01/08 13:03:33;;;;;;;157.43;87.25;;;;;;;;;;6218624;23;20016;-76
2022/01/08 13:06:01;;;;;;;146.93;82.75;;;;;;;;;;6221495;23;20067;-77
2022/01/08 13:08:28;;;;;;;127.88;73.65;;;;;;;;;;6196742;23;20028;-74
2022/01/08 13:11:00;;;;;;;132.68;75.78;;;;;;;;;;6220819;23;20029;-75
2022/01/08 13:13:29;;;;;;;122.50;69.95;;;;;;;;;;6229735;22;20089;-78
2022/01/08 13:15:55;;;;;;;147.48;87.75;;;;;;;;;;6284010;22;20428;-74
2022/01/08 13:18:23;;;;;;;137.25;79.07;;;;;;;;;;6276326;22;20000;-75
2022/01/08 13:21:02;;;;;;;152.50;83.88;;;;;;;;;;6281873;22;20012;-75
2022/01/08 13:23:29;;;;;;;125.43;67.80;;;;;;;;;;6286856;22;20004;-75
2022/01/08 13:25:56;;;;;;;137.77;76.50;;;;;;;;;;6285637;22;20067;-77
2022/01/08 13:28:23;;;;;;;125.35;71.05;;;;;;;;;;6280196;22;20030;-75
2022/01/08 13:30:49;;;;;;;113.55;67.05;;;;;;;;;;6279845;22;20039;-75
2022/01/08 13:33:22;;;;;;;110.15;64.68;;;;;;;;;;6285006;22;20000;-76
2022/01/08 13:36:18;;;;;;;114.47;64.25;;;;;;;;;;6217706;23;20016;-77
2022/01/08 13:38:44;;;;;;;144.23;84.68;;;;;;;;;;6223306;23;20059;-78
2022/01/08 13:41:12;;;;;;;142.20;83.63;;;;;;;;;;6221826;23;20084;-76
2022/01/08 13:43:56;;;;;;;114.93;67.13;;;;;;;;;;6221079;23;20036;-77
2022/01/08 13:46:23;;;;;;;121.63;69.03;;;;;;;;;;6220730;23;20063;-75
2022/01/08 13:48:49;;;;;;;93.80;56.42;;;;;;;;;;6191111;23;20540;-76
2022/01/08 13:51:16;;;;;;;126.88;72.05;;;;;;;;;;6225189;23;20008;-72
2022/01/08 13:53:54;;;;;;;106.25;60.75;;;;;;;;;;6221562;23;20402;-75
2022/01/08 13:56:24;;;;;;;109.35;62.38;;;;;;;;;;6201922;23;20051;-75
2022/01/08 13:58:50;;;;;;;105.35;62.40;;;;;;;;;;6218988;23;20009;-76
2022/01/08 14:01:17;;;;;;;105.47;60.88;;;;;;;;;;6189474;23;20000;-73
2022/01/08 14:03:46;;;;;;;102.80;60.35;;;;;;;;;;6225303;23;20447;-76
2022/01/08 14:06:22;;;;;;;140.15;79.43;;;;;;;;;;6227778;22;20007;-73
2022/01/08 14:08:53;;;;;;;132.35;73.65;;;;;;;;;;6284201;22;20006;-73
2022/01/08 14:11:25;;;;;;;115.53;64.75;;;;;;;;;;6253088;22;20166;-72
2022/01/08 14:13:53;;;;;;;130.50;71.28;;;;;;;;;;6279579;22;20007;-77
2022/01/08 14:16:27;;;;;;;120.10;69.75;;;;;;;;;;6277657;22;20015;-73
2022/01/08 14:18:53;;;;;;;128.15;72.93;;;;;;;;;;6278985;22;20026;-74
2022/01/08 14:21:23;;;;;;;126.18;70.35;;;;;;;;;;6279339;22;20003;-74
2022/01/08 14:23:52;;;;;;;117.63;67.13;;;;;;;;;;6277152;22;19996;-73
2022/01/08 14:26:22;;;;;;;130.43;70.38;;;;;;;;;;6253191;22;20018;-71
2022/01/08 14:29:01;;;;;;;106.30;60.53;;;;;;;;;;6277647;22;20018;-72
2022/01/08 14:31:30;;;;;;;116.07;63.78;;;;;;;;;;6255039;22;20038;-75
2022/01/08 14:34:00;;;;;;;118.85;65.55;;;;;;;;;;6277548;22;20012;-76
2022/01/08 14:36:28;;;;;;;106.07;58.38;;;;;;;;;;6281640;22;20061;-76
2022/01/08 14:38:54;;;;;;;118.38;63.97;;;;;;;;;;6284373;22;20003;-76
2022/01/08 14:41:33;;;;;;;146.50;77.13;;;;;;;;;;6283336;22;20433;-77
2022/01/08 14:44:03;;;;;;;146.02;75.72;;;;;;;;;;6280437;22;20003;-76
2022/01/08 14:46:30;;;;;;;177.65;97.13;;;;;;;;;;6278112;22;20031;-74
2022/01/08 14:48:59;;;;;;;125.18;69.03;;;;;;;;;;6252081;22;20016;-77
2022/01/08 14:51:29;;;;;;;111.20;62.45;;;;;;;;;;6254284;22;20095;-73